Terminal Aerodrome Forecast
Issued by NWS Rapid City, SD

Home | Current Version | Previous Version | Text Only | Print | Product List | Glossary On
Versions: 1 2 3 4 5 6 7 8 9 10 11 12 13 14 15 16 17
000
FTUS43 KUNR 240526 CCA
TAFRAP
TAF COR
KRAP 240526Z 2406/2506 28007KT P6SM SCT200
     FM241100 34028G42KT P6SM SCT060
     FM242100 34018G28KT P6SM SCT200
     FM250000 33012KT P6SM SCT200=

USA.gov is the U.S. government's official web portal to all federal, state and local government web resources and services.